Time;durP1;ratioP1;P1;durP2;ratioP2;P2;SDS_P1;SDS_P2;PMS_P1;PMS_P2;Temp;Humidity;BMP_temperature;BMP_pressure;BME280_temperature;BME280_humidity;BME280_pressure;Samples;Min_cycle;Max_cycle;Signal;HPM_P1;HPM_P2
2022/05/27 00:02:10;;;;;;;;;;;;;;;13.71;73.20;99156.75;1708038;84;20212;-68
2022/05/27 00:04:36;;;;;;;;;;;;;;;13.73;73.40;99148.13;1684153;84;21121;-67
2022/05/27 00:07:04;;;;;;;;;;;;;;;13.76;73.38;99150.20;1708028;84;20076;-67
2022/05/27 00:09:30;;;;;;;;;;;;;;;13.76;73.42;99146.86;1684929;84;20181;-68
2022/05/27 00:11:57;;;;;;;;;;;;;;;13.78;73.31;99152.84;1706742;84;20115;-67
2022/05/27 00:14:23;;;;;;;;;;;;;;;13.80;73.35;99154.67;1707085;83;20125;-68
2022/05/27 00:16:49;;;;;;;;;;;;;;;13.81;73.36;99152.14;1706861;83;21256;-68
2022/05/27 00:19:16;;;;;;;;;;;;;;;13.83;73.49;99156.74;1706781;83;20102;-67
2022/05/27 00:21:42;;;;;;;;;;;;;;;13.83;73.45;99144.91;1706702;83;20086;-68
2022/05/27 00:24:10;;;;;;;;;;;;;;;13.83;73.62;99147.66;1706829;83;20105;-68
2022/05/27 00:26:37;;;;;;;;;;;;;;;13.81;73.63;99148.01;1706968;82;20130;-67
2022/05/27 00:29:04;;;;;;;;;;;;;;;13.80;73.71;99146.40;1706890;84;21144;-67
2022/05/27 00:31:32;;;;;;;;;;;;;;;13.79;73.70;99153.06;1706813;83;20098;-67
2022/05/27 00:33:58;;;;;;;;;;;;;;;13.81;73.62;99152.72;1706994;83;20424;-67
2022/05/27 00:36:24;;;;;;;;;;;;;;;13.80;73.60;99145.59;1706857;84;20101;-67
2022/05/27 00:38:51;;;;;;;;;;;;;;;13.81;73.65;99159.62;1706835;84;20098;-68
2022/05/27 00:41:17;;;;;;;;;;;;;;;13.81;73.59;99162.37;1706978;84;21137;-67
2022/05/27 00:43:43;;;;;;;;;;;;;;;13.81;73.76;99166.52;1707016;83;20121;-67
2022/05/27 00:46:22;;;;;;;;;;;;;;;13.78;73.77;99165.25;1707045;83;20130;-67
2022/05/27 00:48:52;;;;;;;;;;;;;;;13.77;73.93;99169.16;1668144;86;20125;-67
2022/05/27 00:51:22;;;;;;;;;;;;;;;13.76;74.00;99167.55;1707219;84;20126;-68
2022/05/27 00:53:55;;;;;;;;;;;;;;;13.75;74.22;99164.56;1706973;84;21752;-68
2022/05/27 00:56:23;;;;;;;;;;;;;;;13.74;74.30;99158.81;1706934;84;20428;-68
2022/05/27 00:58:52;;;;;;;;;;;;;;;13.73;74.43;99165.48;1648420;86;20174;-68
2022/05/27 01:01:19;;;;;;;;;;;;;;;13.73;74.53;99161.34;1707124;83;20599;-68
2022/05/27 01:03:46;;;;;;;;;;;;;;;13.71;74.81;99159.52;1706934;84;20086;-68
2022/05/27 01:06:12;;;;;;;;;;;;;;;13.71;74.73;99162.84;1706864;84;21805;-68
2022/05/27 01:08:39;;;;;;;;;;;;;;;13.70;74.99;99157.90;1706530;83;20125;-67
2022/05/27 01:11:19;;;;;;;;;;;;;;;13.70;75.24;99152.38;1671577;86;20097;-67
2022/05/27 01:13:52;;;;;;;;;;;;;;;13.69;75.44;99155.48;1701600;84;20434;-68
2022/05/27 01:16:25;;;;;;;;;;;;;;;13.69;75.54;99154.11;1697840;84;20521;-68
2022/05/27 01:22:19;;;;;;;;;;;;;;;13.68;75.83;99157.44;1677671;84;20095;-68
2022/05/27 01:25:08;;;;;;;;;;;;;;;13.68;76.18;99155.26;1699522;83;20148;-68
2022/05/27 01:27:56;;;;;;;;;;;;;;;13.67;76.28;99147.55;1700607;84;20121;-68
2022/05/27 01:30:27;;;;;;;;;;;;;;;13.68;76.19;99151.92;1700597;84;20120;-68
2022/05/27 01:33:04;;;;;;;;;;;;;;;13.73;76.22;99150.89;1701191;84;21259;-71
2022/05/27 01:35:35;;;;;;;;;;;;;;;13.74;76.22;99152.50;1681228;84;37835;-69
2022/05/27 01:38:21;;;;;;;;;;;;;;;13.75;76.20;99151.34;1701170;83;20133;-69
2022/05/27 01:41:02;;;;;;;;;;;;;;;13.75;76.14;99148.59;1664432;84;20101;-68
2022/05/27 01:43:38;;;;;;;;;;;;;;;13.76;76.19;99157.90;1701427;83;20140;-68
2022/05/27 01:46:16;;;;;;;;;;;;;;;13.75;76.19;99161.80;1672533;84;21173;-69
2022/05/27 01:49:07;;;;;;;;;;;;;;;13.75;76.16;99161.80;1701239;84;20169;-68
2022/05/27 01:51:45;;;;;;;;;;;;;;;13.76;76.09;99155.14;1701162;84;20456;-70
2022/05/27 01:54:17;;;;;;;;;;;;;;;13.78;76.02;99156.98;1701564;83;20114;-68
2022/05/27 01:56:47;;;;;;;;;;;;;;;13.80;75.95;99160.77;1701230;84;20412;-68
2022/05/27 01:59:22;;;;;;;;;;;;;;;13.79;76.08;99158.59;1697952;84;21246;-68
2022/05/27 02:02:04;;;;;;;;;;;;;;;13.78;76.22;99171.34;1701274;84;20186;-68
2022/05/27 02:04:36;;;;;;;;;;;;;;;13.76;76.47;99165.37;1700965;84;20097;-68
2022/05/27 02:07:15;;;;;;;;;;;;;;;13.72;76.63;99169.39;1681269;84;20073;-68
2022/05/27 02:09:45;;;;;;;;;;;;;;;13.70;76.87;99175.02;1701822;84;20180;-68
2022/05/27 02:12:24;;;;;;;;;;;;;;;13.66;77.30;99172.16;1706424;84;21226;-68
2022/05/27 02:14:59;;;;;;;;;;;;;;;13.63;77.34;99172.84;1669572;85;20140;-68
2022/05/27 02:17:29;;;;;;;;;;;;;;;13.63;77.45;99183.88;1699927;84;20077;-68
2022/05/27 02:20:04;;;;;;;;;;;;;;;13.62;77.54;99185.02;1706810;83;20121;-68
2022/05/27 02:22:35;;;;;;;;;;;;;;;13.62;77.75;99181.45;1667746;85;20130;-68
2022/05/27 02:25:08;;;;;;;;;;;;;;;13.62;77.87;99181.45;1706308;82;21149;-68
2022/05/27 02:27:37;;;;;;;;;;;;;;;13.61;78.13;99193.06;1668109;85;20113;-68
2022/05/27 02:30:08;;;;;;;;;;;;;;;13.61;78.38;99194.45;1675521;84;20145;-68
2022/05/27 02:32:38;;;;;;;;;;;;;;;13.63;78.34;99197.66;1706501;84;20101;-68
2022/05/27 02:35:11;;;;;;;;;;;;;;;13.64;78.25;99196.52;1706522;84;20114;-68
2022/05/27 02:37:46;;;;;;;;;;;;;;;13.65;78.53;99195.37;1706448;84;21276;-68
2022/05/27 02:40:17;;;;;;;;;;;;;;;13.66;78.55;99199.73;1688187;84;20465;-68
2022/05/27 02:43:09;;;;;;;;;;;;;;;13.67;78.86;99195.02;1648281;86;20118;-68
2022/05/27 02:45:46;;;;;;;;;;;;;;;13.69;78.98;99204.56;1706412;84;20721;-69
2022/05/27 02:48:19;;;;;;;;;;;;;;;13.70;78.58;99203.41;1706406;84;20150;-68
2022/05/27 02:50:49;;;;;;;;;;;;;;;13.71;78.34;99205.02;1706594;84;21156;-68
2022/05/27 02:53:36;;;;;;;;;;;;;;;13.71;78.61;99204.22;1706412;83;20220;-68
2022/05/27 02:56:12;;;;;;;;;;;;;;;13.72;78.50;99201.69;1706613;83;20206;-68
2022/05/27 02:58:39;;;;;;;;;;;;;;;13.73;78.78;99198.59;1706402;83;20077;-68
2022/05/27 03:01:05;;;;;;;;;;;;;;;13.75;78.60;99205.95;1706414;84;20102;-68
2022/05/27 03:03:31;;;;;;;;;;;;;;;13.77;78.42;99196.75;1706508;84;21126;-68
2022/05/27 03:06:21;;;;;;;;;;;;;;;13.78;78.52;99195.59;1706226;84;20121;-68
2022/05/27 03:09:03;;;;;;;;;;;;;;;13.80;79.00;99198.02;1706151;83;20170;-68
2022/05/27 03:11:51;;;;;;;;;;;;;;;13.84;78.41;99209.97;1660959;86;20157;-68
2022/05/27 03:14:25;;;;;;;;;;;;;;;13.85;78.52;99212.38;1675890;85;20121;-68
2022/05/27 03:17:11;;;;;;;;;;;;;;;13.87;78.63;99215.57;1675634;84;21160;-67
2022/05/27 03:20:17;;;;;;;;;;;;;;;13.89;78.53;99211.89;1675954;85;20152;-68
2022/05/27 03:22:57;;;;;;;;;;;;;;;13.93;78.44;99213.96;1648884;87;20156;-68
2022/05/27 03:25:29;;;;;;;;;;;;;;;13.96;78.30;99225.11;1612406;86;20193;-68
2022/05/27 03:28:05;;;;;;;;;;;;;;;13.99;78.44;99223.62;1660905;85;20150;-68
2022/05/27 03:30:36;;;;;;;;;;;;;;;14.01;78.07;99226.26;1652184;85;21170;-68
2022/05/27 03:33:18;;;;;;;;;;;;;;;14.04;77.91;99223.38;1675686;85;20462;-70
2022/05/27 03:35:52;;;;;;;;;;;;;;;14.10;78.07;99223.37;1676009;85;20157;-67
2022/05/27 03:38:43;;;;;;;;;;;;;;;14.14;77.64;99227.05;1676123;85;20148;-67
2022/05/27 03:41:22;;;;;;;;;;;;;;;14.20;77.55;99230.61;1676342;85;20504;-68
2022/05/27 03:43:49;;;;;;;;;;;;;;;14.27;77.62;99221.75;1675992;84;21196;-67
2022/05/27 03:46:34;;;;;;;;;;;;;;;14.32;77.35;99229.80;1675820;85;20149;-67
2022/05/27 03:49:00;;;;;;;;;;;;;;;14.33;77.27;99231.41;1675152;85;20218;-69
2022/05/27 03:51:30;;;;;;;;;;;;;;;14.37;77.23;99235.08;1676226;85;20448;-66
2022/05/27 03:54:05;;;;;;;;;;;;;;;14.38;77.31;99235.30;1675997;84;20132;-66
2022/05/27 03:56:34;;;;;;;;;;;;;;;14.42;77.63;99236.25;1676097;85;21190;-66
2022/05/27 03:59:01;;;;;;;;;;;;;;;14.49;77.76;99236.43;1675962;85;20157;-68
2022/05/27 04:01:29;;;;;;;;;;;;;;;14.56;77.28;99239.98;1676093;85;20120;-67
2022/05/27 04:03:59;;;;;;;;;;;;;;;14.60;77.29;99245.61;1667987;85;20193;-67
2022/05/27 04:06:27;;;;;;;;;;;;;;;14.65;77.08;99249.52;1653509;85;20143;-67
2022/05/27 04:08:57;;;;;;;;;;;;;;;14.69;76.79;99247.09;1628621;87;21165;-67
2022/05/27 04:11:24;;;;;;;;;;;;;;;14.74;76.82;99245.45;1647324;86;20515;-68
2022/05/27 04:13:50;;;;;;;;;;;;;;;14.78;76.70;99240.84;1646700;87;20222;-67
2022/05/27 04:16:17;;;;;;;;;;;;;;;14.86;76.45;99244.61;1646691;87;20490;-68
2022/05/27 04:18:43;;;;;;;;;;;;;;;14.93;76.37;99237.91;1646715;87;20131;-68
2022/05/27 04:21:10;;;;;;;;;;;;;;;15.00;76.06;99245.02;1646764;87;21259;-68
2022/05/27 04:23:38;;;;;;;;;;;;;;;15.06;75.96;99246.92;1646618;87;20131;-69
2022/05/27 04:26:05;;;;;;;;;;;;;;;15.13;75.46;99243.77;1666732;85;20105;-69
2022/05/27 04:28:31;;;;;;;;;;;;;;;15.22;74.25;99248.34;1648020;86;20149;-67
2022/05/27 04:30:58;;;;;;;;;;;;;;;15.27;74.51;99247.51;1672645;86;20109;-68
2022/05/27 04:33:24;;;;;;;;;;;;;;;15.32;73.67;99250.59;1671388;86;21170;-67
2022/05/27 04:35:50;;;;;;;;;;;;;;;15.34;72.85;99255.19;1665573;85;20138;-79
2022/05/27 04:38:16;;;;;;;;;;;;;;;15.35;72.80;99244.36;1669962;85;20145;-71
2022/05/27 04:40:43;;;;;;;;;;;;;;;15.35;72.73;99254.84;1674006;85;20216;-70
2022/05/27 04:43:10;;;;;;;;;;;;;;;15.32;72.47;99261.08;1673421;85;20184;-76
2022/05/27 04:45:36;;;;;;;;;;;;;;;15.32;72.94;99256.13;1673419;85;21069;-77
2022/05/27 04:48:06;;;;;;;;;;;;;;;15.34;72.85;99249.66;1672000;85;20104;-70
2022/05/27 04:50:33;;;;;;;;;;;;;;;15.36;72.50;99255.64;1673952;85;20455;-70
2022/05/27 04:52:59;;;;;;;;;;;;;;;15.42;72.21;99255.61;1673626;85;20698;-73
2022/05/27 04:55:25;;;;;;;;;;;;;;;15.48;72.99;99255.58;1673874;85;20461;-71
2022/05/27 04:57:54;;;;;;;;;;;;;;;15.57;72.35;99243.79;1674035;85;21915;-71
2022/05/27 05:00:29;;;;;;;;;;;;;;;15.65;72.14;99246.94;1674071;85;20188;-70
2022/05/27 05:02:57;;;;;;;;;;;;;;;15.71;71.62;99248.27;1673855;85;20121;-71
2022/05/27 05:05:24;;;;;;;;;;;;;;;15.76;70.34;99239.70;1673706;85;20127;-71
2022/05/27 05:07:54;;;;;;;;;;;;;;;15.79;68.46;99245.91;1673947;85;20120;-71
2022/05/27 05:10:21;;;;;;;;;;;;;;;15.85;69.64;99242.30;1673898;85;21684;-71
2022/05/27 05:12:49;;;;;;;;;;;;;;;15.94;70.15;99242.11;1674057;85;20128;-71
2022/05/27 05:15:16;;;;;;;;;;;;;;;15.99;66.42;99244.03;1673619;85;20169;-71
2022/05/27 05:17:43;;;;;;;;;;;;;;;16.06;67.40;99238.66;1673857;85;20487;-71
2022/05/27 05:20:10;;;;;;;;;;;;;;;16.16;66.90;99242.84;1673675;85;20153;-71
2022/05/27 05:22:36;;;;;;;;;;;;;;;16.30;66.92;99230.68;1673895;85;21141;-70
2022/05/27 05:25:03;;;;;;;;;;;;;;;16.44;65.71;99235.73;1673978;84;20124;-70
2022/05/27 05:27:30;;;;;;;;;;;;;;;16.49;65.26;99229.33;1674079;85;20231;-71
2022/05/27 05:29:58;;;;;;;;;;;;;;;16.50;64.35;99221.83;1673910;85;20539;-71
2022/05/27 05:32:24;;;;;;;;;;;;;;;16.52;65.00;99227.80;1673598;85;20169;-74
2022/05/27 05:34:51;;;;;;;;;;;;;;;16.63;66.82;99229.42;1673196;85;21869;-74
2022/05/27 05:37:17;;;;;;;;;;;;;;;16.79;62.67;99230.16;1661805;86;20151;-72
2022/05/27 05:39:44;;;;;;;;;;;;;;;16.88;63.18;99231.33;1643973;87;20156;-71
2022/05/27 05:42:11;;;;;;;;;;;;;;;16.96;63.80;99231.11;1671344;86;20100;-73
2022/05/27 05:44:39;;;;;;;;;;;;;;;17.11;64.73;99237.16;1672896;86;20416;-74
2022/05/27 05:47:06;;;;;;;;;;;;;;;17.22;62.61;99232.41;1672974;84;21930;-68
2022/05/27 05:49:32;;;;;;;;;;;;;;;17.24;62.00;99240.58;1659942;85;20471;-75
2022/05/27 05:52:00;;;;;;;;;;;;;;;17.31;63.16;99240.70;1673722;85;20137;-70
2022/05/27 05:54:27;;;;;;;;;;;;;;;17.44;62.37;99240.73;1673072;85;20129;-73
2022/05/27 05:56:53;;;;;;;;;;;;;;;17.55;62.64;99240.92;1649530;86;20122;-75
2022/05/27 05:59:22;;;;;;;;;;;;;;;17.59;60.48;99243.76;1649225;86;21150;-74
2022/05/27 06:01:49;;;;;;;;;;;;;;;17.49;61.38;99240.42;1648628;86;20120;-76
2022/05/27 06:04:15;;;;;;;;;;;;;;;17.45;61.67;99244.30;1657628;86;20111;-76
2022/05/27 06:06:42;;;;;;;;;;;;;;;17.43;62.09;99232.77;1672513;86;20160;-67
2022/05/27 06:09:08;;;;;;;;;;;;;;;17.41;61.71;99226.20;1672566;86;20126;-67
2022/05/27 06:11:36;;;;;;;;;;;;;;;17.44;60.65;99220.50;1651817;85;20105;-67
2022/05/27 06:14:04;;;;;;;;;;;;;;;17.47;59.66;99223.34;1677808;85;20085;-67
2022/05/27 06:16:32;;;;;;;;;;;;;;;17.55;60.31;99215.94;1678005;85;20109;-68
2022/05/27 06:18:59;;;;;;;;;;;;;;;17.65;61.14;99214.52;1654576;85;20125;-68
2022/05/27 06:21:26;;;;;;;;;;;;;;;17.74;60.13;99222.84;1677696;85;20105;-69
2022/05/27 06:23:54;;;;;;;;;;;;;;;17.69;58.65;99206.50;1666654;85;22464;-69
2022/05/27 06:26:21;;;;;;;;;;;;;;;17.68;60.24;99216.00;1678430;85;20426;-68
2022/05/27 06:34:24;;;;;;;;;;;;;;;17.99;59.93;99203.78;1669355;86;20081;-69
2022/05/27 06:36:56;;;;;;;;;;;;;;;18.11;59.00;99204.16;1672411;86;21876;-69
2022/05/27 06:39:23;;;;;;;;;;;;;;;18.10;57.94;99201.17;1650844;86;20428;-69
2022/05/27 06:41:50;;;;;;;;;;;;;;;18.09;58.95;99198.98;1650847;86;20140;-67
2022/05/27 06:44:18;;;;;;;;;;;;;;;18.16;58.36;99184.40;1651094;86;20109;-67
2022/05/27 06:46:46;;;;;;;;;;;;;;;18.22;56.22;99190.43;1672313;85;20444;-68
2022/05/27 06:49:12;;;;;;;;;;;;;;;18.22;58.51;99192.63;1672373;86;21155;-68
2022/05/27 06:51:39;;;;;;;;;;;;;;;18.31;58.55;99182.62;1671544;86;20106;-68
2022/05/27 06:54:07;;;;;;;;;;;;;;;18.43;58.17;99178.23;1671663;85;20122;-68
2022/05/27 06:56:35;;;;;;;;;;;;;;;18.46;57.45;99183.83;1635527;87;20152;-68
2022/05/27 06:59:02;;;;;;;;;;;;;;;18.41;57.55;99179.99;1643286;87;20519;-68
2022/05/27 07:01:28;;;;;;;;;;;;;;;18.43;58.84;99183.19;1622968;87;21887;-68
2022/05/27 07:03:55;;;;;;;;;;;;;;;18.46;57.23;99171.33;1643681;87;20128;-68
2022/05/27 07:06:21;;;;;;;;;;;;;;;18.45;57.27;99179.45;1643883;87;20128;-70
2022/05/27 07:08:47;;;;;;;;;;;;;;;18.52;57.38;99162.63;1643662;87;20120;-67
2022/05/27 07:11:13;;;;;;;;;;;;;;;18.62;58.06;99171.72;1647910;85;20107;-67
2022/05/27 07:13:40;;;;;;;;;;;;;;;18.77;56.72;99157.61;1677204;85;21195;-67
2022/05/27 07:16:06;;;;;;;;;;;;;;;18.86;57.31;99155.13;1676872;85;20100;-68
2022/05/27 07:18:33;;;;;;;;;;;;;;;18.89;55.84;99157.94;1685515;84;20093;-68
2022/05/27 07:21:01;;;;;;;;;;;;;;;18.94;55.65;99151.23;1705826;84;20173;-68
2022/05/27 07:23:28;;;;;;;;;;;;;;;18.91;56.69;99154.19;1705122;83;20229;-67
2022/05/27 07:25:54;;;;;;;;;;;;;;;18.98;56.95;99147.31;1706758;82;21129;-67
2022/05/27 07:28:20;;;;;;;;;;;;;;;19.06;56.26;99155.91;1700266;83;20137;-69
2022/05/27 07:30:47;;;;;;;;;;;;;;;19.12;56.65;99143.26;1688210;84;20073;-67
2022/05/27 07:33:15;;;;;;;;;;;;;;;19.21;56.33;99140.75;1706557;83;20432;-69
2022/05/27 07:35:41;;;;;;;;;;;;;;;19.26;54.06;99134.25;1706455;83;20149;-68
2022/05/27 07:38:08;;;;;;;;;;;;;;;19.34;56.17;99137.90;1706435;84;21765;-67
2022/05/27 07:40:34;;;;;;;;;;;;;;;19.42;54.62;99132.60;1706552;83;20144;-67
2022/05/27 07:43:00;;;;;;;;;;;;;;;19.40;55.49;99139.15;1706545;84;20133;-67
2022/05/27 07:45:27;;;;;;;;;;;;;;;19.47;54.50;99133.64;1669240;86;20114;-67
2022/05/27 07:47:54;;;;;;;;;;;;;;;19.51;52.13;99130.33;1706304;84;20098;-67
2022/05/27 07:50:20;;;;;;;;;;;;;;;19.50;52.94;99130.09;1706723;83;21104;-67
2022/05/27 07:52:47;;;;;;;;;;;;;;;19.59;52.84;99133.38;1706571;83;20098;-68
2022/05/27 07:55:13;;;;;;;;;;;;;;;19.69;51.42;99133.22;1705481;84;20137;-72
2022/05/27 07:57:45;;;;;;;;;;;;;;;19.70;51.06;99128.66;1687541;84;20180;-70
2022/05/27 08:00:17;;;;;;;;;;;;;;;19.74;51.19;99133.66;1706077;83;20158;-73
2022/05/27 08:02:43;;;;;;;;;;;;;;;19.89;51.14;99127.59;1706518;83;21122;-68
2022/05/27 08:05:12;;;;;;;;;;;;;;;20.04;52.22;99111.18;1706432;83;20124;-72
2022/05/27 08:07:38;;;;;;;;;;;;;;;20.11;49.97;99120.17;1706243;84;20110;-68
2022/05/27 08:10:06;;;;;;;;;;;;;;;20.04;50.72;99119.54;1703986;83;20177;-68
2022/05/27 08:12:33;;;;;;;;;;;;;;;20.01;51.13;99106.98;1684414;84;20126;-69
2022/05/27 08:15:00;;;;;;;;;;;;;;;20.14;50.34;99112.42;1701146;84;21341;-67
2022/05/27 08:17:26;;;;;;;;;;;;;;;20.36;50.40;99118.88;1701263;84;20086;-67
2022/05/27 08:19:53;;;;;;;;;;;;;;;20.66;51.73;99124.21;1701120;84;20089;-68
2022/05/27 08:22:20;;;;;;;;;;;;;;;20.84;48.17;99135.39;1694640;84;20129;-69
2022/05/27 08:24:48;;;;;;;;;;;;;;;20.70;48.42;99116.66;1672172;84;20102;-67
2022/05/27 08:27:14;;;;;;;;;;;;;;;20.54;48.46;99124.56;1701558;84;21158;-67
2022/05/27 08:29:41;;;;;;;;;;;;;;;20.31;48.77;99122.84;1701295;84;20152;-66
2022/05/27 08:32:08;;;;;;;;;;;;;;;20.14;49.78;99122.18;1701126;84;20417;-67
2022/05/27 08:40:20;;;;;;;;;;;;;;;20.58;48.57;99106.66;1701441;84;21152;-71
2022/05/27 08:43:09;;;;;;;;;;;;;;;20.95;46.45;99099.95;1701815;84;20420;-73
2022/05/27 08:45:40;;;;;;;;;;;;;;;21.23;47.42;99105.61;1701469;84;20113;-74
2022/05/27 08:48:09;;;;;;;;;;;;;;;21.53;46.53;99102.39;1701711;84;20097;-69
2022/05/27 08:50:47;;;;;;;;;;;;;;;21.65;46.33;99108.17;1701582;84;20413;-68
2022/05/27 08:53:41;;;;;;;;;;;;;;;21.75;45.37;99098.98;1700914;84;21180;-69
2022/05/27 09:01:48;;;;;;;;;;;;;;;21.91;42.75;99103.55;1695142;84;20105;-75
2022/05/27 09:04:19;;;;;;;;;;;;;;;21.75;43.29;99112.95;1700056;84;20117;-73
2022/05/27 09:06:49;;;;;;;;;;;;;;;21.52;42.66;99095.81;1700116;84;21810;-69
2022/05/27 09:09:23;;;;;;;;;;;;;;;21.55;44.32;99100.59;1700491;83;20117;-73
2022/05/27 09:12:22;;;;;;;;;;;;;;;21.70;43.58;99101.59;1702127;84;20140;-72
2022/05/27 09:15:07;;;;;;;;;;;;;;;21.66;42.29;99104.98;1707929;84;20084;-72
2022/05/27 09:17:40;;;;;;;;;;;;;;;21.29;42.73;99104.02;1707852;84;20108;-74
2022/05/27 09:20:26;;;;;;;;;;;;;;;21.15;43.56;99103.97;1708428;84;21091;-74
2022/05/27 09:23:18;;;;;;;;;;;;;;;21.32;45.26;99089.86;1708170;84;20124;-72
2022/05/27 09:25:54;;;;;;;;;;;;;;;21.65;45.40;99092.81;1708138;82;20109;-73
2022/05/27 09:28:51;;;;;;;;;;;;;;;22.24;45.04;99085.50;1708102;84;20105;-71
2022/05/27 09:31:21;;;;;;;;;;;;;;;22.60;40.33;99090.91;1708450;84;20105;-69
2022/05/27 09:33:48;;;;;;;;;;;;;;;22.50;39.90;99082.80;1706838;82;21360;-68
2022/05/27 09:36:18;;;;;;;;;;;;;;;22.33;41.19;99085.86;1683812;84;20113;-71
2022/05/27 09:38:52;;;;;;;;;;;;;;;22.45;41.59;99079.63;1708089;84;20113;-70
2022/05/27 09:41:35;;;;;;;;;;;;;;;22.84;40.93;99076.02;1708270;84;20109;-67
2022/05/27 09:44:26;;;;;;;;;;;;;;;23.23;39.50;99082.72;1707909;84;20137;-67
2022/05/27 09:46:52;;;;;;;;;;;;;;;23.26;38.88;99077.70;1708253;83;21177;-72
2022/05/27 09:49:19;;;;;;;;;;;;;;;23.44;40.64;99072.55;1707423;84;20116;-72
2022/05/27 09:51:46;;;;;;;;;;;;;;;23.87;39.87;99071.55;1707925;82;20449;-72
2022/05/27 09:54:13;;;;;;;;;;;;;;;24.06;38.55;99068.73;1707654;82;20109;-79
2022/05/27 10:03:16;;;;;;;;;;;;;;;23.56;38.85;99062.27;1707935;84;20113;-73
2022/05/27 10:06:04;;;;;;;;;;;;;;;23.42;39.00;99055.36;1707895;84;20089;-72
2022/05/27 10:08:34;;;;;;;;;;;;;;;23.27;38.60;99052.69;1679624;85;20162;-71
2022/05/27 10:11:09;;;;;;;;;;;;;;;23.08;39.33;99053.88;1679694;85;20429;-72
2022/05/27 10:13:36;;;;;;;;;;;;;;;22.85;39.12;99057.23;1679394;85;21876;-72
2022/05/27 10:16:05;;;;;;;;;;;;;;;22.51;39.86;99045.23;1679682;85;20439;-71
2022/05/27 10:18:31;;;;;;;;;;;;;;;22.57;41.07;99039.38;1679623;85;20086;-70
2022/05/27 10:21:01;;;;;;;;;;;;;;;23.03;42.88;99042.50;1679617;85;20086;-70
2022/05/27 10:23:31;;;;;;;;;;;;;;;23.36;40.07;99041.80;1679918;85;20120;-68
2022/05/27 10:25:57;;;;;;;;;;;;;;;23.36;39.01;99042.41;1656289;85;21126;-67
2022/05/27 10:28:27;;;;;;;;;;;;;;;23.10;38.48;99033.26;1705006;82;20097;-69
2022/05/27 10:31:03;;;;;;;;;;;;;;;22.74;39.18;99033.48;1684227;84;20435;-72
2022/05/27 10:33:42;;;;;;;;;;;;;;;22.43;40.09;99024.70;1708183;84;20453;-68
2022/05/27 10:36:40;;;;;;;;;;;;;;;22.19;40.70;99028.60;1705514;84;20117;-69
2022/05/27 10:39:09;;;;;;;;;;;;;;;22.02;41.54;99021.88;1708015;84;21203;-71
2022/05/27 10:41:42;;;;;;;;;;;;;;;22.01;41.76;99027.27;1688224;84;20293;-71
2022/05/27 10:44:27;;;;;;;;;;;;;;;22.08;42.32;99025.05;1686771;84;20422;-70
2022/05/27 10:46:55;;;;;;;;;;;;;;;22.17;42.29;99022.62;1694438;84;20073;-69
2022/05/27 10:49:43;;;;;;;;;;;;;;;22.19;42.41;99016.02;1679709;84;20167;-69
2022/05/27 10:52:45;;;;;;;;;;;;;;;22.40;42.67;99015.13;1678628;84;21944;-69
2022/05/27 10:55:27;;;;;;;;;;;;;;;22.68;41.77;99012.73;1678090;85;20274;-69
2022/05/27 11:04:26;;;;;;;;;;;;;;;22.35;41.29;99005.77;1707365;84;20084;-72
2022/05/27 11:07:07;;;;;;;;;;;;;;;22.07;42.01;98995.51;1706800;82;21242;-72
2022/05/27 11:09:38;;;;;;;;;;;;;;;21.84;43.28;98997.39;1707897;84;20124;-71
2022/05/27 11:12:09;;;;;;;;;;;;;;;21.69;42.97;98986.86;1707750;84;20084;-76
2022/05/27 11:15:12;;;;;;;;;;;;;;;21.60;43.78;98980.90;1707851;84;20692;-73
2022/05/27 11:17:56;;;;;;;;;;;;;;;21.56;43.74;98984.30;1708129;84;20072;-73
2022/05/27 11:20:47;;;;;;;;;;;;;;;21.49;44.06;98976.53;1708167;84;21204;-70
2022/05/27 11:23:43;;;;;;;;;;;;;;;21.49;44.43;98972.34;1707819;84;20129;-71
2022/05/27 11:26:22;;;;;;;;;;;;;;;21.54;44.48;98978.32;1684217;84;20137;-70
2022/05/27 11:29:25;;;;;;;;;;;;;;;21.56;43.92;98975.13;1707251;84;20425;-70
2022/05/27 11:32:11;;;;;;;;;;;;;;;21.55;43.02;98973.53;1708067;84;20100;-70
2022/05/27 11:35:00;;;;;;;;;;;;;;;21.56;43.09;98968.94;1707836;82;20574;-69
2022/05/27 11:37:32;;;;;;;;;;;;;;;21.69;43.79;98967.30;1707730;84;20429;-71
2022/05/27 11:40:23;;;;;;;;;;;;;;;21.84;43.80;98964.47;1708055;84;20420;-70
2022/05/27 11:46:08;;;;;;;;;;;;;;;21.95;42.28;98956.20;1684236;82;20124;-71
2022/05/27 11:49:16;;;;;;;;;;;;;;;21.85;42.75;98951.48;1690012;84;20408;-71
2022/05/27 11:52:08;;;;;;;;;;;;;;;21.72;42.00;98946.95;1694011;82;20143;-74
2022/05/27 11:54:56;;;;;;;;;;;;;;;21.61;42.40;98950.38;1702982;84;20125;-80
2022/05/27 11:57:26;;;;;;;;;;;;;;;21.57;41.76;98952.98;1708360;84;20116;-84
2022/05/27 12:00:10;;;;;;;;;;;;;;;21.50;42.04;98944.63;1707852;82;20144;-86
2022/05/27 12:02:43;;;;;;;;;;;;;;;21.41;40.99;98943.65;1699207;84;21234;-73
2022/05/27 12:05:16;;;;;;;;;;;;;;;21.39;42.33;98939.06;1691066;84;20124;-74
2022/05/27 12:07:50;;;;;;;;;;;;;;;21.43;42.52;98940.65;1678440;84;20136;-78
2022/05/27 12:10:37;;;;;;;;;;;;;;;21.51;42.79;98931.66;1667737;84;20173;-76
2022/05/27 12:13:19;;;;;;;;;;;;;;;21.60;42.94;98929.23;1697517;82;20207;-74
2022/05/27 12:15:49;;;;;;;;;;;;;;;21.71;42.68;98932.78;1679169;85;21109;-73
2022/05/27 12:18:27;;;;;;;;;;;;;;;21.78;42.74;98930.56;1679150;85;20119;-74
2022/05/27 12:20:53;;;;;;;;;;;;;;;21.82;43.19;98932.73;1657194;85;20153;-73
2022/05/27 12:23:22;;;;;;;;;;;;;;;21.89;42.42;98920.14;1699876;84;20575;-73
2022/05/27 12:25:51;;;;;;;;;;;;;;;21.89;42.28;98920.73;1706774;84;20101;-73
2022/05/27 12:28:21;;;;;;;;;;;;;;;21.84;41.22;98921.16;1706731;84;21260;-72
2022/05/27 12:30:47;;;;;;;;;;;;;;;21.77;42.33;98913.61;1705052;84;20093;-75
2022/05/27 12:33:18;;;;;;;;;;;;;;;21.81;42.75;98912.19;1696678;84;20128;-73
2022/05/27 12:36:03;;;;;;;;;;;;;;;21.89;42.01;98904.77;1707703;84;20100;-73
2022/05/27 12:38:34;;;;;;;;;;;;;;;21.89;41.75;98908.16;1707697;84;20094;-72
2022/05/27 12:41:05;;;;;;;;;;;;;;;21.84;41.63;98905.80;1684087;84;21146;-73
2022/05/27 12:43:37;;;;;;;;;;;;;;;21.77;41.43;98894.05;1661771;82;20167;-72
2022/05/27 12:46:13;;;;;;;;;;;;;;;21.81;41.91;98891.24;1706379;84;20120;-74
2022/05/27 12:48:44;;;;;;;;;;;;;;;22.10;40.05;98857.74;1706728;84;20424;-78
2022/05/27 12:51:20;;;;;;;;;;;;;;;22.57;41.25;98870.14;1706474;84;20113;-73
2022/05/27 12:53:51;;;;;;;;;;;;;;;23.18;39.16;98876.58;1706606;84;21098;-72
2022/05/27 13:02:19;;;;;;;;;;;;;;;23.64;37.79;98863.47;1706513;84;20412;-72
2022/05/27 13:04:50;;;;;;;;;;;;;;;23.69;37.93;98860.17;1706521;84;20171;-72
2022/05/27 13:07:39;;;;;;;;;;;;;;;24.00;37.03;98850.53;1706922;82;21255;-73
2022/05/27 13:10:22;;;;;;;;;;;;;;;24.36;36.69;98844.38;1707296;84;20117;-74
2022/05/27 13:12:55;;;;;;;;;;;;;;;24.50;35.92;98841.95;1706509;84;20117;-73
2022/05/27 13:15:44;;;;;;;;;;;;;;;24.36;35.86;98840.97;1705693;84;20101;-73
2022/05/27 13:18:32;;;;;;;;;;;;;;;24.18;35.83;98834.05;1705416;84;20118;-73
2022/05/27 13:21:20;;;;;;;;;;;;;;;23.84;37.23;98824.34;1705589;84;21156;-71
2022/05/27 13:24:05;;;;;;;;;;;;;;;23.65;37.85;98818.83;1705665;84;20401;-72
2022/05/27 13:26:35;;;;;;;;;;;;;;;23.48;38.18;98824.02;1704843;83;20152;-80
2022/05/27 13:29:33;;;;;;;;;;;;;;;23.24;38.30;98818.30;1704266;84;20114;-72
2022/05/27 13:32:05;;;;;;;;;;;;;;;22.96;38.59;98825.65;1709259;84;20114;-72
2022/05/27 13:34:41;;;;;;;;;;;;;;;22.68;39.27;98814.90;1705244;83;21240;-72
2022/05/27 13:37:16;;;;;;;;;;;;;;;22.47;39.48;98817.13;1705494;84;20417;-72
2022/05/27 13:39:46;;;;;;;;;;;;;;;22.27;40.13;98814.89;1705393;83;20437;-72
2022/05/27 13:42:16;;;;;;;;;;;;;;;22.16;40.54;98818.37;1705263;83;20086;-72
2022/05/27 13:44:43;;;;;;;;;;;;;;;22.09;40.73;98811.43;1705446;83;20428;-72
2022/05/27 13:47:13;;;;;;;;;;;;;;;22.04;40.91;98815.45;1705324;83;21125;-72
2022/05/27 13:49:41;;;;;;;;;;;;;;;21.96;41.16;98814.48;1710743;83;20118;-72
2022/05/27 13:52:18;;;;;;;;;;;;;;;21.86;41.53;98813.98;1705495;83;20184;-71
2022/05/27 13:54:44;;;;;;;;;;;;;;;21.75;42.13;98806.46;1705498;84;20182;-72
2022/05/27 13:57:12;;;;;;;;;;;;;;;21.65;41.41;98807.92;1705290;84;20086;-72
2022/05/27 13:59:42;;;;;;;;;;;;;;;21.57;41.31;98795.98;1705684;83;21877;-72